createdAt,value
2023-04-17T00:01:44.214Z,17.53
2023-04-17T00:04:11.676Z,17.54
2023-04-17T00:06:45.590Z,17.52
2023-04-17T00:09:13.198Z,17.52
2023-04-17T00:11:40.355Z,17.53
2023-04-17T00:14:07.311Z,17.52
2023-04-17T00:16:34.314Z,17.51
2023-04-17T00:19:01.417Z,17.48
2023-04-17T00:21:30.204Z,17.48
2023-04-17T00:23:57.329Z,17.44
2023-04-17T00:26:24.589Z,17.46
2023-04-17T00:28:52.284Z,17.45
2023-04-17T00:31:19.435Z,17.45
2023-04-17T00:33:46.838Z,17.44
2023-04-17T00:36:15.655Z,17.45
2023-04-17T00:38:42.640Z,17.43
2023-04-17T00:41:09.829Z,17.42
2023-04-17T00:43:37.014Z,17.42
2023-04-17T00:46:05.345Z,17.41
2023-04-17T00:48:34.266Z,17.42
2023-04-17T00:51:04.300Z,17.41
2023-04-17T00:53:32.351Z,17.38
2023-04-17T00:56:01.587Z,17.38
2023-04-17T00:58:28.740Z,17.35
2023-04-17T01:00:55.753Z,17.36
2023-04-17T01:03:23.366Z,17.36
2023-04-17T01:05:52.416Z,17.33
2023-04-17T01:08:19.826Z,17.33
2023-04-17T01:10:46.878Z,17.34
2023-04-17T01:13:13.863Z,17.33
2023-04-17T01:15:40.889Z,17.33
2023-04-17T01:18:07.909Z,17.33
2023-04-17T01:20:35.474Z,17.32
2023-04-17T01:23:02.578Z,17.31
2023-04-17T01:25:29.484Z,17.28
2023-04-17T01:27:57.348Z,17.31
2023-04-17T01:30:24.554Z,17.31
2023-04-17T01:32:54.537Z,17.31
2023-04-17T01:35:21.658Z,17.31
2023-04-17T01:37:48.664Z,17.32
2023-04-17T01:40:15.903Z,17.32
2023-04-17T01:42:42.894Z,17.28
2023-04-17T01:45:10.320Z,17.30
2023-04-17T01:47:37.549Z,17.30
2023-04-17T01:50:04.811Z,17.28
2023-04-17T01:52:31.740Z,17.28
2023-04-17T01:54:58.621Z,17.30
2023-04-17T01:57:25.574Z,17.29
2023-04-17T01:59:52.430Z,17.30
2023-04-17T02:02:19.589Z,17.30
2023-04-17T02:04:46.707Z,17.30
2023-04-17T02:07:13.710Z,17.30
2023-04-17T02:09:40.730Z,17.29
2023-04-17T02:12:07.689Z,17.30
2023-04-17T02:14:34.679Z,17.32
2023-04-17T02:17:01.916Z,17.31
2023-04-17T02:19:28.843Z,17.32
2023-04-17T02:21:55.774Z,17.31
2023-04-17T02:24:22.653Z,17.33
2023-04-17T02:26:50.091Z,17.32
2023-04-17T02:29:17.028Z,17.30
2023-04-17T02:31:44.080Z,17.29
2023-04-17T02:34:11.333Z,17.29
2023-04-17T02:36:38.307Z,17.30
2023-04-17T02:39:05.887Z,17.30
2023-04-17T02:41:32.916Z,17.31
2023-04-17T02:44:01.619Z,17.31
2023-04-17T02:46:28.572Z,17.32
2023-04-17T02:48:55.558Z,17.33
2023-04-17T02:51:22.524Z,17.34
2023-04-17T02:53:49.599Z,17.34
2023-04-17T02:56:16.527Z,17.34
2023-04-17T02:58:45.348Z,17.33
2023-04-17T03:01:12.438Z,17.35
2023-04-17T03:03:42.445Z,17.36
2023-04-17T03:06:10.237Z,17.37
2023-04-17T03:08:38.984Z,17.35
2023-04-17T03:11:06.850Z,17.34
2023-04-17T03:13:37.301Z,17.35
2023-04-17T03:16:05.412Z,17.34
2023-04-17T03:18:32.861Z,17.34
2023-04-17T03:20:59.797Z,17.36
2023-04-17T03:23:26.863Z,17.39
2023-04-17T03:25:53.793Z,17.37
2023-04-17T03:28:22.314Z,17.40
2023-04-17T03:30:49.712Z,17.39
2023-04-17T03:33:19.782Z,17.36
2023-04-17T03:35:46.884Z,17.40
2023-04-17T03:38:13.779Z,17.41
2023-04-17T03:40:41.170Z,17.39
2023-04-17T03:43:08.153Z,17.39
2023-04-17T03:45:35.432Z,17.41
2023-04-17T03:48:02.696Z,17.41
2023-04-17T03:50:29.687Z,17.42
2023-04-17T03:52:56.563Z,17.40
2023-04-17T03:55:23.482Z,17.44
2023-04-17T03:57:52.027Z,17.43
2023-04-17T04:00:19.289Z,17.44
2023-04-17T04:02:47.002Z,17.43
2023-04-17T04:05:14.288Z,17.43
2023-04-17T04:07:41.460Z,17.43
2023-04-17T04:10:08.908Z,17.45
2023-04-17T04:12:35.933Z,17.45
2023-04-17T04:15:02.872Z,17.48
2023-04-17T04:17:29.813Z,17.47
2023-04-17T04:19:56.725Z,17.48
2023-04-17T04:22:23.979Z,17.50
2023-04-17T04:24:53.953Z,17.49
2023-04-17T04:27:23.024Z,17.50
2023-04-17T04:29:50.085Z,17.52
2023-04-17T04:32:17.564Z,17.52
2023-04-17T04:34:45.041Z,17.47
2023-04-17T04:37:16.096Z,17.50
2023-04-17T04:39:43.514Z,17.51
2023-04-17T04:42:10.713Z,17.52
2023-04-17T04:44:37.841Z,17.53
2023-04-17T04:47:04.898Z,17.51
2023-04-17T04:49:31.941Z,17.52
2023-04-17T04:51:59.028Z,17.54
2023-04-17T04:54:26.177Z,17.50
2023-04-17T04:56:53.246Z,17.55
2023-04-17T04:59:20.280Z,17.58
2023-04-17T05:01:48.169Z,17.59
2023-04-17T05:04:15.238Z,17.60
2023-04-17T05:06:42.323Z,17.61
2023-04-17T05:09:09.554Z,17.62
2023-04-17T05:11:36.990Z,17.62
2023-04-17T05:14:03.908Z,17.61
2023-04-17T05:16:31.329Z,17.60
2023-04-17T05:18:58.433Z,17.62
2023-04-17T05:21:25.734Z,17.60
2023-04-17T05:23:52.677Z,17.59
2023-04-17T05:26:22.360Z,17.58
2023-04-17T05:28:51.971Z,17.61
2023-04-17T05:31:19.075Z,17.63
2023-04-17T05:33:46.138Z,17.59
2023-04-17T05:36:13.034Z,17.44
2023-04-17T05:38:40.193Z,17.06
2023-04-17T05:41:10.385Z,17.04
2023-04-17T05:43:37.320Z,17.07
2023-04-17T05:46:04.331Z,16.99
2023-04-17T05:48:31.640Z,16.98
2023-04-17T05:50:58.749Z,16.96
2023-04-17T05:53:25.919Z,16.97
2023-04-17T05:55:52.896Z,17.03
2023-04-17T05:58:23.748Z,17.03
2023-04-17T06:00:52.723Z,17.04
2023-04-17T06:03:20.025Z,17.06
2023-04-17T06:05:47.446Z,17.05
2023-04-17T06:08:14.510Z,17.08
2023-04-17T06:10:41.797Z,17.04
2023-04-17T06:13:08.744Z,17.06
2023-04-17T06:15:35.999Z,17.08
2023-04-17T06:18:03.007Z,17.08
2023-04-17T06:20:30.080Z,17.08
2023-04-17T06:22:57.436Z,17.05
2023-04-17T06:25:24.474Z,17.12
2023-04-17T06:27:51.554Z,16.98
2023-04-17T06:30:18.616Z,16.98
2023-04-17T06:32:45.959Z,17.12
2023-04-17T06:35:13.542Z,17.17
2023-04-17T06:37:40.647Z,17.07
2023-04-17T06:40:08.508Z,17.01
2023-04-17T06:42:36.115Z,17.10
2023-04-17T06:45:03.144Z,17.17
2023-04-17T06:47:30.350Z,17.20
2023-04-17T06:50:00.261Z,17.27
2023-04-17T06:52:27.464Z,17.33
2023-04-17T06:54:55.307Z,17.35
2023-04-17T06:57:22.916Z,17.34
2023-04-17T06:59:49.977Z,17.18
2023-04-17T07:02:18.061Z,17.00
2023-04-17T07:04:45.416Z,17.26
2023-04-17T07:07:12.777Z,17.33
2023-04-17T07:09:39.767Z,17.30
2023-04-17T07:12:06.907Z,17.41
2023-04-17T07:14:34.049Z,17.82
2023-04-17T07:17:04.749Z,18.21
2023-04-17T07:19:32.839Z,18.48
2023-04-17T07:22:00.266Z,18.64
2023-04-17T07:24:27.464Z,18.80
2023-04-17T07:26:54.453Z,18.73
2023-04-17T07:29:21.505Z,18.82
2023-04-17T07:31:48.663Z,18.73
2023-04-17T07:34:15.699Z,18.39
2023-04-17T07:36:42.844Z,18.21
2023-04-17T07:39:13.214Z,18.03
2023-04-17T07:41:43.522Z,17.94
2023-04-17T07:44:10.734Z,17.89
2023-04-17T07:46:38.223Z,17.57
2023-04-17T07:49:05.270Z,17.48
2023-04-17T07:51:32.715Z,17.40
2023-04-17T07:53:59.905Z,17.12
2023-04-17T07:56:28.622Z,16.92
2023-04-17T07:58:56.255Z,16.81
2023-04-17T08:01:23.437Z,16.70
2023-04-17T08:03:52.254Z,16.85
2023-04-17T08:06:19.562Z,17.04
2023-04-17T08:08:48.120Z,17.22
2023-04-17T08:11:15.574Z,17.31
2023-04-17T08:13:42.998Z,17.39
2023-04-17T08:16:10.483Z,17.44
2023-04-17T08:18:42.445Z,17.45
2023-04-17T08:21:09.774Z,17.50
2023-04-17T08:23:36.888Z,17.53
2023-04-17T08:26:04.552Z,17.54
2023-04-17T08:28:31.674Z,17.58
2023-04-17T08:30:59.053Z,17.59
2023-04-17T08:33:27.637Z,17.58
2023-04-17T08:35:54.788Z,17.61
2023-04-17T08:38:21.862Z,17.62
2023-04-17T08:40:52.800Z,17.56
2023-04-17T08:43:21.595Z,17.59
2023-04-17T08:45:54.364Z,17.58
2023-04-17T08:48:25.408Z,17.57
2023-04-17T08:50:54.058Z,17.57
2023-04-17T08:53:21.483Z,17.54
2023-04-17T08:55:49.393Z,17.34
2023-04-17T08:58:16.769Z,17.36
2023-04-17T09:00:45.696Z,17.41
2023-04-17T09:03:14.934Z,17.46
2023-04-17T09:05:46.652Z,17.51
2023-04-17T09:08:17.659Z,17.51
2023-04-17T09:10:55.637Z,17.50
2023-04-17T09:13:25.675Z,17.52
2023-04-17T09:16:11.424Z,17.52
2023-04-17T09:18:40.125Z,17.57
2023-04-17T09:21:09.549Z,17.47
2023-04-17T09:23:56.688Z,17.27
2023-04-17T09:26:31.380Z,17.35
2023-04-17T09:29:08.046Z,17.43
2023-04-17T09:31:37.971Z,17.48
2023-04-17T09:34:13.735Z,17.38
2023-04-17T09:36:42.557Z,17.32
2023-04-17T09:39:24.478Z,17.29
2023-04-17T09:42:03.743Z,17.24
2023-04-17T09:44:31.175Z,17.21
2023-04-17T09:47:00.856Z,17.21
2023-04-17T09:49:45.167Z,17.18
2023-04-17T09:52:13.583Z,17.18
2023-04-17T09:54:42.683Z,17.17
2023-04-17T09:57:11.914Z,17.14
2023-04-17T09:59:45.813Z,17.13
2023-04-17T10:02:14.665Z,17.14
2023-04-17T10:04:43.182Z,17.12
2023-04-17T10:07:11.617Z,17.12
2023-04-17T10:09:40.381Z,17.22
2023-04-17T10:12:13.396Z,17.27
2023-04-17T10:14:44.387Z,17.24
2023-04-17T10:17:32.123Z,17.26
2023-04-17T10:20:23.848Z,17.27
2023-04-17T10:22:56.642Z,17.29
2023-04-17T10:25:28.273Z,17.30
2023-04-17T10:28:00.215Z,17.36
2023-04-17T10:30:55.386Z,17.37
2023-04-17T10:33:26.509Z,17.32
2023-04-17T10:35:54.492Z,17.36
2023-04-17T10:38:38.794Z,17.35
2023-04-17T10:41:09.798Z,17.34
2023-04-17T10:43:41.829Z,17.36
2023-04-17T10:46:13.240Z,17.34
2023-04-17T10:48:52.963Z,17.42
2023-04-17T10:51:23.298Z,17.39
2023-04-17T10:53:57.908Z,17.36
2023-04-17T10:56:29.346Z,17.36
2023-04-17T10:59:01.614Z,17.36
2023-04-17T11:01:38.260Z,17.13
2023-04-17T11:04:06.720Z,16.94
2023-04-17T11:06:38.369Z,17.02
2023-04-17T11:09:09.657Z,17.18
2023-04-17T11:11:45.249Z,17.15
2023-04-17T11:14:18.151Z,17.22
2023-04-17T11:16:47.296Z,17.21
2023-04-17T11:19:32.794Z,17.31
2023-04-17T11:22:01.785Z,17.29
2023-04-17T11:24:30.830Z,17.26
2023-04-17T11:27:00.588Z,17.28
2023-04-17T11:29:28.425Z,17.26
2023-04-17T11:31:57.141Z,17.26
2023-04-17T11:34:27.145Z,17.25
2023-04-17T11:36:59.433Z,17.26
2023-04-17T11:39:29.429Z,17.27
2023-04-17T11:41:59.905Z,17.27
2023-04-17T11:44:29.260Z,17.30
2023-04-17T11:47:01.166Z,17.32
2023-04-17T11:49:30.756Z,17.31
2023-04-17T11:52:01.603Z,17.32
2023-04-17T11:54:28.876Z,17.32
2023-04-17T11:57:04.743Z,17.34
2023-04-17T11:59:36.200Z,17.37
2023-04-17T12:02:04.501Z,17.40
2023-04-17T12:04:35.087Z,17.40
2023-04-17T12:07:07.763Z,17.41
2023-04-17T12:09:35.540Z,17.44
2023-04-17T12:12:07.202Z,17.47
2023-04-17T12:14:34.812Z,17.50
2023-04-17T12:17:02.999Z,17.55
2023-04-17T12:19:32.303Z,17.58
2023-04-17T12:22:00.225Z,17.60
2023-04-17T12:24:27.668Z,17.62
2023-04-17T12:26:55.014Z,17.60
2023-04-17T12:29:36.146Z,17.53
2023-04-17T12:32:11.115Z,17.55
2023-04-17T12:34:38.397Z,17.55
2023-04-17T12:37:05.930Z,17.52
2023-04-17T12:39:33.738Z,17.52
2023-04-17T12:42:01.029Z,17.57
2023-04-17T12:44:28.263Z,17.60
2023-04-17T12:46:55.474Z,17.62
2023-04-17T12:49:24.100Z,17.70
2023-04-17T12:51:51.728Z,17.79
2023-04-17T12:54:19.280Z,17.87
2023-04-17T12:56:46.302Z,17.91
2023-04-17T12:59:13.410Z,17.98
2023-04-17T13:01:40.567Z,18.01
2023-04-17T13:04:07.988Z,18.05
2023-04-17T13:06:35.420Z,18.03
2023-04-17T13:09:02.830Z,18.09
2023-04-17T13:11:30.217Z,18.14
2023-04-17T13:13:57.433Z,18.25
2023-04-17T13:16:24.822Z,18.31
2023-04-17T13:18:52.557Z,18.36
2023-04-17T13:21:19.816Z,18.40
2023-04-17T13:23:46.939Z,18.48
2023-04-17T13:26:14.025Z,18.52
2023-04-17T13:28:41.049Z,18.56
2023-04-17T13:31:09.253Z,18.62
2023-04-17T13:33:36.628Z,18.65
2023-04-17T13:36:04.122Z,18.69
2023-04-17T13:38:31.809Z,18.73
2023-04-17T13:40:59.477Z,18.77
2023-04-17T13:43:26.610Z,18.85
2023-04-17T13:45:55.661Z,18.86
2023-04-17T13:48:22.851Z,18.80
2023-04-17T13:50:50.178Z,18.83
2023-04-17T13:53:17.473Z,18.77
2023-04-17T13:55:44.796Z,18.75
2023-04-17T13:58:12.438Z,18.77
2023-04-17T14:00:39.638Z,18.81
2023-04-17T14:03:07.024Z,18.83
2023-04-17T14:05:35.322Z,18.84
2023-04-17T14:08:02.573Z,18.91
2023-04-17T14:10:29.694Z,18.92
2023-04-17T14:12:56.935Z,18.97
2023-04-17T14:15:24.374Z,19.03
2023-04-17T14:17:51.515Z,19.10
2023-04-17T14:20:20.418Z,19.17
2023-04-17T14:22:47.590Z,19.25
2023-04-17T14:25:15.475Z,19.31
2023-04-17T14:27:42.820Z,19.40
2023-04-17T14:30:10.315Z,19.48
2023-04-17T14:32:38.844Z,19.56
2023-04-17T14:35:06.946Z,19.61
2023-04-17T14:37:34.908Z,19.68
2023-04-17T14:40:01.949Z,19.72
2023-04-17T14:42:29.346Z,19.78
2023-04-17T14:44:56.422Z,19.82
2023-04-17T14:47:23.580Z,19.87
2023-04-17T14:49:51.445Z,19.90
2023-04-17T14:52:18.745Z,19.92
2023-04-17T14:54:45.883Z,19.94
2023-04-17T14:57:13.140Z,20.01
2023-04-17T14:59:40.452Z,20.03
2023-04-17T15:02:08.069Z,20.08
2023-04-17T15:04:35.311Z,20.08
2023-04-17T15:07:05.564Z,20.07
2023-04-17T15:09:32.659Z,20.08
2023-04-17T15:12:01.327Z,20.05
2023-04-17T15:14:30.295Z,20.05
2023-04-17T15:16:59.004Z,20.09
2023-04-17T15:19:26.259Z,19.87
2023-04-17T15:21:53.634Z,19.57
2023-04-17T15:24:21.033Z,19.40
2023-04-17T15:26:49.665Z,19.55
2023-04-17T15:29:17.576Z,19.68
2023-04-17T15:31:45.349Z,19.74
2023-04-17T15:34:14.363Z,19.80
2023-04-17T15:36:45.057Z,19.84
2023-04-17T15:39:13.122Z,19.90
2023-04-17T15:41:41.105Z,19.90
2023-04-17T15:44:08.309Z,19.90
2023-04-17T15:46:35.540Z,19.85
2023-04-17T15:49:22.115Z,19.85
2023-04-17T15:51:49.270Z,19.66
2023-04-17T15:54:17.162Z,19.73
2023-04-17T15:56:44.328Z,19.77
2023-04-17T15:59:11.620Z,19.86
2023-04-17T16:01:38.875Z,19.86
2023-04-17T16:04:06.724Z,19.85
2023-04-17T16:06:34.403Z,19.84
2023-04-17T16:09:02.106Z,19.78
2023-04-17T16:11:29.402Z,19.78
2023-04-17T16:13:56.651Z,19.78
2023-04-17T16:16:23.934Z,19.79
2023-04-17T16:18:51.193Z,19.77
2023-04-17T16:21:18.439Z,19.78
2023-04-17T16:23:46.284Z,19.60
2023-04-17T16:26:14.562Z,19.16
2023-04-17T16:28:41.765Z,18.87
2023-04-17T16:31:09.019Z,18.75
2023-04-17T16:33:36.263Z,18.76
2023-04-17T16:36:03.496Z,18.94
2023-04-17T16:38:30.537Z,18.95
2023-04-17T16:40:59.463Z,19.03
2023-04-17T16:43:27.274Z,19.02
2023-04-17T16:45:54.335Z,19.02
2023-04-17T16:48:21.715Z,19.05
2023-04-17T16:50:49.020Z,18.63
2023-04-17T16:53:16.503Z,18.64
2023-04-17T16:55:43.534Z,18.75
2023-04-17T16:58:11.215Z,18.69
2023-04-17T17:00:38.623Z,18.66
2023-04-17T17:03:06.195Z,18.64
2023-04-17T17:05:33.338Z,18.65
2023-04-17T17:08:00.555Z,18.68
2023-04-17T17:10:28.040Z,18.66
2023-04-17T17:12:55.169Z,18.63
2023-04-17T17:15:22.277Z,18.62
2023-04-17T17:17:49.492Z,18.61
2023-04-17T17:20:17.014Z,18.60
2023-04-17T17:22:44.515Z,18.62
2023-04-17T17:25:12.036Z,18.63
2023-04-17T17:27:42.086Z,18.69
2023-04-17T17:30:09.742Z,18.78
2023-04-17T17:32:37.079Z,18.81
2023-04-17T17:35:04.406Z,18.84
2023-04-17T17:37:31.724Z,18.87
2023-04-17T17:40:00.118Z,18.91
2023-04-17T17:42:27.231Z,18.96
2023-04-17T17:44:54.346Z,18.96
2023-04-17T17:47:21.470Z,18.97
2023-04-17T17:49:49.952Z,18.98
2023-04-17T17:52:17.184Z,19.01
2023-04-17T17:54:44.368Z,18.97
2023-04-17T17:57:11.590Z,19.06
2023-04-17T17:59:38.856Z,19.04
2023-04-17T18:02:06.502Z,19.02
2023-04-17T18:04:35.040Z,19.07
2023-04-17T18:07:02.431Z,19.03
2023-04-17T18:09:29.743Z,18.99
2023-04-17T18:11:57.394Z,19.04
2023-04-17T18:14:24.512Z,19.01
2023-04-17T18:16:52.252Z,19.01
2023-04-17T18:19:19.561Z,19.07
2023-04-17T18:21:47.803Z,19.04
2023-04-17T18:24:15.018Z,19.07
2023-04-17T18:26:42.306Z,19.07
2023-04-17T18:29:09.453Z,19.04
2023-04-17T18:31:36.799Z,19.13
2023-04-17T18:34:05.116Z,19.17
2023-04-17T18:36:32.482Z,19.14
2023-04-17T18:39:00.857Z,19.13
2023-04-17T18:41:30.321Z,19.13
2023-04-17T18:43:58.983Z,19.17
2023-04-17T18:46:27.778Z,19.19
2023-04-17T18:48:55.255Z,19.22
2023-04-17T18:51:24.046Z,19.23
2023-04-17T18:53:53.168Z,19.22
2023-04-17T18:56:21.518Z,19.23
2023-04-17T18:58:50.455Z,19.25
2023-04-17T19:01:19.645Z,19.23
2023-04-17T19:03:47.761Z,19.24
2023-04-17T19:06:15.629Z,19.23
2023-04-17T19:08:46.665Z,19.26
2023-04-17T19:11:14.522Z,19.29
2023-04-17T19:13:43.258Z,19.34
2023-04-17T19:16:12.847Z,19.30
2023-04-17T19:18:41.166Z,19.32
2023-04-17T19:21:08.795Z,19.33
2023-04-17T19:23:38.940Z,19.34
2023-04-17T19:26:06.384Z,19.36
2023-04-17T19:28:34.129Z,19.35
2023-04-17T19:31:04.917Z,19.36
2023-04-17T19:33:33.030Z,19.32
2023-04-17T19:36:05.047Z,19.33
2023-04-17T19:38:33.883Z,19.38
2023-04-17T19:41:18.052Z,19.43
2023-04-17T19:43:50.322Z,19.44
2023-04-17T19:46:20.669Z,19.48
2023-04-17T19:48:51.662Z,19.46
2023-04-17T19:51:20.733Z,19.40
2023-04-17T19:53:48.855Z,19.44
2023-04-17T19:56:16.507Z,19.40
2023-04-17T19:58:44.204Z,19.40
2023-04-17T20:01:11.626Z,19.42
2023-04-17T20:03:40.091Z,19.32
2023-04-17T20:06:10.379Z,19.26
2023-04-17T20:08:38.034Z,19.29
2023-04-17T20:11:06.790Z,19.30
2023-04-17T20:13:35.901Z,19.31
2023-04-17T20:16:03.502Z,19.28
2023-04-17T20:18:32.160Z,19.29
2023-04-17T20:21:02.074Z,19.29
2023-04-17T20:23:30.266Z,19.26
2023-04-17T20:25:57.486Z,19.26
2023-04-17T20:28:25.250Z,19.23
2023-04-17T20:30:52.903Z,19.10
2023-04-17T20:33:21.974Z,19.01
2023-04-17T20:35:50.372Z,18.89
2023-04-17T20:38:18.495Z,18.93
2023-04-17T20:40:47.550Z,18.95
2023-04-17T20:43:14.893Z,19.04
2023-04-17T20:45:43.766Z,19.01
2023-04-17T20:48:11.346Z,19.02
2023-04-17T20:50:38.671Z,19.00
2023-04-17T20:53:06.711Z,19.03
2023-04-17T20:55:34.509Z,19.05
2023-04-17T20:58:04.805Z,19.05
2023-04-17T21:00:32.210Z,19.05
2023-04-17T21:02:59.480Z,19.00
2023-04-17T21:05:27.846Z,19.02
2023-04-17T21:07:55.267Z,18.93
2023-04-17T21:10:22.634Z,18.76
2023-04-17T21:12:50.045Z,18.64
2023-04-17T21:15:17.338Z,18.55
2023-04-17T21:17:48.753Z,18.47
2023-04-17T21:20:16.200Z,18.41
2023-04-17T21:22:44.109Z,18.37
2023-04-17T21:25:12.142Z,18.31
2023-04-17T21:27:41.534Z,18.28
2023-04-17T21:30:11.049Z,18.25
2023-04-17T21:32:40.186Z,18.21
2023-04-17T21:35:07.734Z,18.16
2023-04-17T21:37:34.932Z,18.13
2023-04-17T21:40:02.309Z,18.09
2023-04-17T21:42:29.412Z,18.07
2023-04-17T21:44:56.889Z,18.04
2023-04-17T21:47:24.124Z,17.98
2023-04-17T21:49:51.259Z,17.99
2023-04-17T21:52:18.599Z,17.95
2023-04-17T21:54:46.167Z,17.91
2023-04-17T21:57:13.608Z,17.92
2023-04-17T21:59:40.919Z,17.90
2023-04-17T22:02:08.184Z,17.85
2023-04-17T22:04:35.398Z,17.86
2023-04-17T22:07:02.647Z,17.83
2023-04-17T22:09:29.744Z,17.79
2023-04-17T22:11:57.551Z,17.76
2023-04-17T22:14:24.732Z,17.74
2023-04-17T22:16:51.828Z,17.73
2023-04-17T22:19:18.950Z,17.72
2023-04-17T22:21:45.930Z,17.68
2023-04-17T22:24:13.087Z,17.67
2023-04-17T22:26:40.336Z,17.65
2023-04-17T22:29:07.332Z,17.64
2023-04-17T22:31:34.515Z,17.60
2023-04-17T22:34:01.638Z,17.59
2023-04-17T22:36:29.022Z,17.54
2023-04-17T22:38:56.296Z,17.53
2023-04-17T22:41:23.499Z,17.52
2023-04-17T22:43:50.585Z,17.48
2023-04-17T22:46:17.639Z,17.48
2023-04-17T22:48:47.871Z,17.44
2023-04-17T22:51:15.427Z,17.42
2023-04-17T22:53:43.147Z,17.40
2023-04-17T22:56:12.574Z,17.37
2023-04-17T22:58:39.820Z,17.36
2023-04-17T23:01:06.962Z,17.35
2023-04-17T23:03:35.360Z,17.33
2023-04-17T23:06:03.499Z,17.31
2023-04-17T23:08:31.401Z,17.27
2023-04-17T23:11:02.367Z,17.26
2023-04-17T23:13:31.991Z,17.24
2023-04-17T23:15:59.012Z,17.23
2023-04-17T23:18:26.004Z,17.22
2023-04-17T23:20:52.958Z,17.20
2023-04-17T23:23:19.945Z,17.17
2023-04-17T23:25:46.921Z,17.16
2023-04-17T23:28:14.170Z,17.14
2023-04-17T23:30:41.187Z,17.14
2023-04-17T23:33:08.544Z,17.13
2023-04-17T23:35:35.796Z,17.08
2023-04-17T23:38:02.734Z,17.11
2023-04-17T23:40:29.859Z,17.08
2023-04-17T23:42:56.841Z,17.05
2023-04-17T23:45:23.760Z,17.05
2023-04-17T23:47:50.936Z,17.02
2023-04-17T23:50:18.026Z,17.01
2023-04-17T23:52:45.045Z,16.98
2023-04-17T23:55:12.080Z,16.96
2023-04-17T23:57:39.274Z,16.94
